Virginiborg — PBDL — position and weather

sailwx.info

Track history (hours):
 
Tides and Currents Weather Stations Pressure Air Temp Water Temp Dewpoint Dewpoint Depression Visibility Wind Speed Wind Dir Waves Ship Positions

Virginiborg

Last reported at 2016-Jul-31 06:33 UTC. Time now 2016-Jul-31 07:24 UTC.
Position N 45°50' W 084°52'.

Length 132 m; draft 5.8 m.

Type: Cargo ship. MMSI: 244632000.

Date/timePositionNaut miles runAvg speedWind from/ knotsBaromVisibWave heightAir tempDewpointWater temp
2016-Jul-31 06:33N 45°50' W 084°52'1211.5
2016-Jul-31 05:33N 45°46' W 084°37'1211.7
2016-Jul-31 04:32N 45°41' W 084°21'265 5.4
2016-Jul-29 03:33N 43°13' W 079°13'2 2.2
2016-Jul-29 02:33N 43°15' W 079°13'227 5.5
2016-Jul-27 09:31N 45°03' W 074°34'20 9.9
2016-Jul-27 07:29N 45°14' W 074°11'8 8.7
2016-Jul-27 06:31N 45°15' W 073°59'4 4.5
2016-Jul-27 05:33N 45°19' W 073°55'2 2.4
2016-Jul-27 04:33N 45°20' W 073°53'10 9.6
2016-Jul-27 03:33N 45°25' W 073°41'5 5.3
2016-Jul-27 02:34N 45°24' W 073°34'5 4.5
2016-Jul-27 01:30N 45°29' W 073°31'2 1.3
2016-Jul-27 00:20N 45°30' W 073°31'2 0.5
2016-Jul-26 19:33N 45°32' W 073°32'0 0.0
2016-Jul-26 16:26N 45°32' W 073°32'0 0.0
2016-Jul-26 15:31N 45°32' W 073°32'0 0.0
2016-Jul-26 14:16N 45°32' W 073°32'0 0.0
2016-Jul-26 13:30N 45°32' W 073°32'0 0.0
2016-Jul-26 12:24N 45°32' W 073°32'0 0.0
2016-Jul-26 11:29N 45°32' W 073°32'0 0.0
2016-Jul-26 10:29N 45°32' W 073°32'0 0.0
2016-Jul-26 09:29N 45°32' W 073°32'0 0.0
2016-Jul-26 08:22N 45°32' W 073°32'0 0.0
2016-Jul-26 07:28N 45°32' W 073°32'0 0.0
2016-Jul-26 06:27N 45°32' W 073°32'0 0.0
2016-Jul-25 22:30N 45°32' W 073°32'0 0.0
2016-Jul-25 21:29N 45°32' W 073°32'0 0.0
2016-Jul-25 20:29N 45°32' W 073°32'0 0.0
2016-Jul-25 19:28N 45°32' W 073°32'0 0.0
2016-Jul-25 18:28N 45°32' W 073°32'0 0.0
2016-Jul-25 17:22N 45°32' W 073°32'0 0.0
2016-Jul-25 16:33N 45°32' W 073°32'0 0.0
2016-Jul-25 14:26N 45°32' W 073°32'0 0.0
2016-Jul-25 13:26N 45°32' W 073°32'0 0.0
2016-Jul-25 12:31N 45°32' W 073°32'0 0.0
2016-Jul-25 11:25N 45°32' W 073°32'0 0.0
2016-Jul-25 10:25N 45°32' W 073°32'0 0.0
2016-Jul-25 09:30N 45°32' W 073°32'0 0.0
2016-Jul-25 08:30N 45°32' W 073°32'0 0.0
2016-Jul-25 07:29N 45°32' W 073°32'0 0.0
2016-Jul-25 06:29N 45°32' W 073°32'0 0.0
2016-Jul-25 05:28N 45°32' W 073°32'0 0.0
2016-Jul-25 04:31N 45°32' W 073°32'0 0.0
2016-Jul-25 03:31N 45°32' W 073°32'0 0.0
2016-Jul-25 02:33N 45°32' W 073°32'0 0.0
2016-Jul-25 01:27N 45°32' W 073°32'0 0.0
2016-Jul-24 21:19N 45°32' W 073°32'0 0.0
2016-Jul-24 11:33N 45°32' W 073°32'0 0.0
2016-Jul-24 10:32N 45°32' W 073°32'0 0.0
2016-Jul-24 09:32N 45°32' W 073°32'0 0.0
2016-Jul-24 08:31N 45°32' W 073°32'0 0.0
2016-Jul-24 07:31N 45°32' W 073°32'0 0.0
2016-Jul-24 06:30N 45°32' W 073°32'0 0.0
2016-Jul-24 03:29N 45°32' W 073°32'0 0.0
2016-Jul-24 02:29N 45°32' W 073°32'0 0.0
2016-Jul-24 01:28N 45°32' W 073°32'0 0.0
2016-Jul-24 00:16N 45°32' W 073°32'0 0.0
2016-Jul-23 22:30N 45°32' W 073°32'5 4.4
2016-Jul-23 21:27N 45°37' W 073°30'8 8.7
2016-Jul-23 20:33N 45°44' W 073°25'10 9.6
2016-Jul-23 19:33N 45°51' W 073°16'10 9.5
2016-Jul-23 18:34N 45°60' W 073°11'9 9.2
2016-Jul-23 17:33N 46°05' W 073°00'9 9.4
2016-Jul-23 16:33N 46°12' W 072°51'1010.1
2016-Jul-23 15:32N 46°16' W 072°37'  
Track history (hours):
 
Tides and Currents Weather Stations Pressure Air Temp Water Temp Dewpoint Dewpoint Depression Visibility Wind Speed Wind Dir Waves Ship Positions

Virginiborg

Last reported at 2016-Jul-31 06:33 UTC. Time now 2016-Jul-31 07:24 UTC.
Position N 45°50' W 084°52'.

Length 132 m; draft 5.8 m.

Type: Cargo ship. MMSI: 244632000.

Date/timePositionNaut miles runAvg speedWind from/ knotsBaromVisibWave heightAir tempDewpointWater temp
2016-Jul-31 06:33N 45°50' W 084°52'1211.5
2016-Jul-31 05:33N 45°46' W 084°37'1211.7
2016-Jul-31 04:32N 45°41' W 084°21'265 5.4
2016-Jul-29 03:33N 43°13' W 079°13'2 2.2
2016-Jul-29 02:33N 43°15' W 079°13'227 5.5
2016-Jul-27 09:31N 45°03' W 074°34'20 9.9
2016-Jul-27 07:29N 45°14' W 074°11'8 8.7
2016-Jul-27 06:31N 45°15' W 073°59'4 4.5
2016-Jul-27 05:33N 45°19' W 073°55'2 2.4
2016-Jul-27 04:33N 45°20' W 073°53'10 9.6
2016-Jul-27 03:33N 45°25' W 073°41'5 5.3
2016-Jul-27 02:34N 45°24' W 073°34'5 4.5
2016-Jul-27 01:30N 45°29' W 073°31'2 1.3
2016-Jul-27 00:20N 45°30' W 073°31'2 0.5
2016-Jul-26 19:33N 45°32' W 073°32'0 0.0
2016-Jul-26 16:26N 45°32' W 073°32'0 0.0
2016-Jul-26 15:31N 45°32' W 073°32'0 0.0
2016-Jul-26 14:16N 45°32' W 073°32'0 0.0
2016-Jul-26 13:30N 45°32' W 073°32'0 0.0
2016-Jul-26 12:24N 45°32' W 073°32'0 0.0
2016-Jul-26 11:29N 45°32' W 073°32'0 0.0
2016-Jul-26 10:29N 45°32' W 073°32'0 0.0
2016-Jul-26 09:29N 45°32' W 073°32'0 0.0
2016-Jul-26 08:22N 45°32' W 073°32'0 0.0
2016-Jul-26 07:28N 45°32' W 073°32'0 0.0
2016-Jul-26 06:27N 45°32' W 073°32'0 0.0
2016-Jul-25 22:30N 45°32' W 073°32'0 0.0
2016-Jul-25 21:29N 45°32' W 073°32'0 0.0
2016-Jul-25 20:29N 45°32' W 073°32'0 0.0
2016-Jul-25 19:28N 45°32' W 073°32'0 0.0
2016-Jul-25 18:28N 45°32' W 073°32'0 0.0
2016-Jul-25 17:22N 45°32' W 073°32'0 0.0
2016-Jul-25 16:33N 45°32' W 073°32'0 0.0
2016-Jul-25 14:26N 45°32' W 073°32'0 0.0
2016-Jul-25 13:26N 45°32' W 073°32'0 0.0
2016-Jul-25 12:31N 45°32' W 073°32'0 0.0
2016-Jul-25 11:25N 45°32' W 073°32'0 0.0
2016-Jul-25 10:25N 45°32' W 073°32'0 0.0
2016-Jul-25 09:30N 45°32' W 073°32'0 0.0
2016-Jul-25 08:30N 45°32' W 073°32'0 0.0
2016-Jul-25 07:29N 45°32' W 073°32'0 0.0
2016-Jul-25 06:29N 45°32' W 073°32'0 0.0
2016-Jul-25 05:28N 45°32' W 073°32'0 0.0
2016-Jul-25 04:31N 45°32' W 073°32'0 0.0
2016-Jul-25 03:31N 45°32' W 073°32'0 0.0
2016-Jul-25 02:33N 45°32' W 073°32'0 0.0
2016-Jul-25 01:27N 45°32' W 073°32'0 0.0
2016-Jul-24 21:19N 45°32' W 073°32'0 0.0
2016-Jul-24 11:33N 45°32' W 073°32'0 0.0
2016-Jul-24 10:32N 45°32' W 073°32'0 0.0
2016-Jul-24 09:32N 45°32' W 073°32'0 0.0
2016-Jul-24 08:31N 45°32' W 073°32'0 0.0
2016-Jul-24 07:31N 45°32' W 073°32'0 0.0
2016-Jul-24 06:30N 45°32' W 073°32'0 0.0
2016-Jul-24 03:29N 45°32' W 073°32'0 0.0
2016-Jul-24 02:29N 45°32' W 073°32'0 0.0
2016-Jul-24 01:28N 45°32' W 073°32'0 0.0
2016-Jul-24 00:16N 45°32' W 073°32'0 0.0
2016-Jul-23 22:30N 45°32' W 073°32'5 4.4
2016-Jul-23 21:27N 45°37' W 073°30'8 8.7
2016-Jul-23 20:33N 45°44' W 073°25'10 9.6
2016-Jul-23 19:33N 45°51' W 073°16'10 9.5
2016-Jul-23 18:34N 45°60' W 073°11'9 9.2
2016-Jul-23 17:33N 46°05' W 073°00'9 9.4
2016-Jul-23 16:33N 46°12' W 072°51'1010.1
2016-Jul-23 15:32N 46°16' W 072°37'  

Dump ship's entire track history